Nearby METAR Reports

 

KSJC - San Jose, California, USA
Distance from station: NE 9mi, 14km
Updated: Sat, 24-Sep-2022 6:53pm PDT
Clear
Clear
 Wind from NNW
Wind: NNW 14 mph , 22 km/h
Temperature: 79°F , 26°C
Dew Point: 54°F , 12°C
Humidity: 42%
Barometer: 29.97 inHg , 1014.9 hPa
Clouds: Clear
Visibility: 10 miles , 16 km
2022/09/25 01:53 KSJC 250153Z 33012KT 10SM CLR 26/12 A2997 RMK AO2 SLP147 T02560117
KRHV - San Jose/Reid, California, USA
Distance from station: ENE 12mi, 19km
Updated: Sat, 24-Sep-2022 6:47pm PDT
Clear
Clear
 Wind from W
Wind: W 7 mph , 11 km/h
Temperature: 82°F , 28°C
Dew Point: 54°F , 12°C
Humidity: 37%
Barometer: 29.97 inHg , 1014.9 hPa
Clouds: Clear
Visibility: 10 miles , 16 km
2022/09/25 01:47 KRHV 250147Z 28006KT 10SM SKC 28/12 A2997
 
KPAO - Palo Alto, California, USA
Distance from station: NNW 14mi, 23km
Updated: Sat, 24-Sep-2022 6:47pm PDT
Clear
Clear
 Wind from NNW
Wind: NNW 13 mph , 20 km/h
Temperature: 70°F , 21°C
Dew Point: 61°F , 16°C
Humidity: 73%
Barometer: 29.97 inHg , 1014.9 hPa
Clouds: Clear
Visibility: 10 miles , 16 km
2022/09/25 01:47 KPAO 250147Z 33011KT 10SM SKC 21/16 A2997
KOAK - Oakland, California, USA
Distance from station: NNW 31mi, 50km
Updated: Sat, 24-Sep-2022 6:53pm PDT
Few Clouds
Few Clouds
 Wind from NW
Wind: NW 12 mph , 19 km/h
Temperature: 66°F , 19°C
Dew Point: 57°F , 14°C
Humidity: 73%
Barometer: 29.98 inHg , 1015.2 hPa
Clouds: Few Clouds
Visibility: 10 miles , 16 km
Cloud details: Few Clouds 500 ft
Few Clouds 1000 ft
2022/09/25 01:53 KOAK 250153Z 31010KT 10SM FEW005 FEW010 19/14 A2998 RMK AO2 SLP151 T01940144
 
KSQL - San Carlos Airpo, California, USA
Distance from station: NW 21mi, 34km
Updated: Sat, 24-Sep-2022 6:47pm PDT
Clear
Clear
 Wind from W
Wind: W 9 mph , 15 km/h
Temperature: 77°F , 25°C
Dew Point: 50°F , 10°C
Humidity: 39%
Barometer: 29.97 inHg , 1014.9 hPa
Clouds: Clear
Visibility: 10 miles , 16 km
2022/09/25 01:47 KSQL 250147Z 27008KT 10SM CLR 25/10 A2997
KSFO - San Francisco, California, USA
Distance from station: NW 30mi, 49km
Updated: Sat, 24-Sep-2022 6:56pm PDT
Few Clouds
Few Clouds
 Wind from WNW
Wind: WNW 20 mph , 31 km/h
Temperature: 66°F , 19°C
Dew Point: 57°F , 14°C
Humidity: 73%
Barometer: 29.97 inHg , 1014.9 hPa
Clouds: Few Clouds
Visibility: 10 miles , 16 km
Cloud details: Few Clouds 400 ft
2022/09/25 01:56 KSFO 250156Z 30017KT 10SM FEW004 19/14 A2997 RMK AO2 SLP149 T01890139
 
KE16 - San Martin, California, USA
Distance from station: ESE 27mi, 43km
Updated: Sat, 24-Sep-2022 7:15pm PDT
Clear
Clear
 Wind from SE
Wind: SE 8 mph , 13 km/h
Temperature: 66°F , 19°C
Dew Point: 55°F , 13°C
Humidity: 68%
Barometer: 30.02 inHg , 1016.6 hPa
Clouds: Clear
Visibility: 10 miles , 16 km
2022/09/25 02:15 KE16 250215Z AUTO 13007KT 10SM CLR 19/13 A3002 RMK AO2 PWINO PNO
KWVI - Watsonville, California, USA
Distance from station: SSE 27mi, 44km
Updated: Sat, 24-Sep-2022 6:53pm PDT
Overcast
Overcast
 Wind from WSW
Wind: WSW 5 mph , 7 km/h
Temperature: 61°F , 16°C
Dew Point: 57°F , 14°C
Humidity: 88%
Barometer: 30.04 inHg , 1017.3 hPa
Clouds: Overcast
Visibility: 7 miles , 11 km
Cloud details: Overcast 500 ft
2022/09/25 01:53 KWVI 250153Z AUTO 25004KT 7SM OVC005 16/14 A3004 RMK AO2 SLP172 T01560139
 
KHAF - Half Moon Bay, California, USA
Distance from station: WNW 31mi, 50km
Updated: Sat, 24-Sep-2022 7:15pm PDT
Fog, Overcast
Fog, Overcast
 Wind from SE
Wind: SE 8 mph , 13 km/h
Temperature: 59°F , 15°C
Dew Point: 57°F , 14°C
Humidity: 94%
Barometer: 30.03 inHg , 1016.9 hPa
Summary: Fog
Clouds: Overcast
Visibility: less than 1/4 mile , 0.4 km
Cloud details: Overcast 200 ft
2022/09/25 02:15 KHAF 250215Z AUTO 14007KT M1/4SM FG OVC002 15/14 A3003 RMK AO2
KHWD - Hayward, California, USA
Distance from station: N 28mi, 44km
Updated: Sat, 24-Sep-2022 6:54pm PDT
Clear
Clear
 Wind from WNW
Wind: WNW 6 mph , 9 km/h
Temperature: 72°F , 22°C
Dew Point: 61°F , 16°C
Humidity: 69%
Barometer: 29.97 inHg , 1014.9 hPa
Clouds: Clear
Visibility: 10 miles , 16 km
2022/09/25 01:54 KHWD 250154Z 29005KT 10SM CLR 22/16 A2997 RMK AO2 SLP158 T02170156
 
KLVK - Livermore, California, USA
Distance from station: NNE 31mi, 51km
Updated: Sat, 24-Sep-2022 6:53pm PDT
Clear
Clear
 Wind from calm
Wind: Calm
Temperature: 84°F , 29°C
Dew Point: 48°F , 9°C
Humidity: 29%
Barometer: 29.96 inHg , 1014.6 hPa
Clouds: Clear
Visibility: 10 miles , 16 km
2022/09/25 01:53 KLVK 250153Z 00000KT 10SM CLR 29/09 A2996 RMK AO2 SLP140 T02940089 $